sensor_id;sensor_type;location;lat;lon;timestamp;pressure;altitude;pressure_sealevel;temperature;humidity
26443;BME280;5563;52.296;6.806;2023-02-12T00:01:53;103670.16;;;7.10;83.12
26443;BME280;5563;52.296;6.806;2023-02-12T00:04:20;103668.41;;;7.08;83.27
26443;BME280;5563;52.296;6.806;2023-02-12T00:06:53;103671.88;;;7.13;83.32
26443;BME280;5563;52.296;6.806;2023-02-12T00:09:30;103681.47;;;7.17;83.33
26443;BME280;5563;52.296;6.806;2023-02-12T00:12:04;103680.69;;;7.13;83.14
26443;BME280;5563;52.296;6.806;2023-02-12T00:14:36;103653.69;;;6.95;83.31
26443;BME280;5563;52.296;6.806;2023-02-12T00:17:09;103688.63;;;7.13;83.24
26443;BME280;5563;52.296;6.806;2023-02-12T00:19:36;103678.19;;;7.07;83.11
26443;BME280;5563;52.296;6.806;2023-02-12T00:22:03;103688.78;;;7.07;83.08
26443;BME280;5563;52.296;6.806;2023-02-12T00:24:44;103672.19;;;6.98;82.97
26443;BME280;5563;52.296;6.806;2023-02-12T00:27:11;103679.09;;;7.05;83.44
26443;BME280;5563;52.296;6.806;2023-02-12T00:29:45;103679.09;;;7.05;83.28
26443;BME280;5563;52.296;6.806;2023-02-12T00:32:15;103665.19;;;6.95;83.18
26443;BME280;5563;52.296;6.806;2023-02-12T00:34:53;103685.38;;;7.01;82.88
26443;BME280;5563;52.296;6.806;2023-02-12T00:37:20;103665.28;;;6.89;82.96
26443;BME280;5563;52.296;6.806;2023-02-12T00:39:55;103693.31;;;7.02;83.22
26443;BME280;5563;52.296;6.806;2023-02-12T00:42:22;103687.22;;;6.99;83.49
26443;BME280;5563;52.296;6.806;2023-02-12T00:44:49;103691.66;;;6.97;83.64
26443;BME280;5563;52.296;6.806;2023-02-12T00:47:22;103682.00;;;6.93;83.64
26443;BME280;5563;52.296;6.806;2023-02-12T00:49:55;103690.78;;;6.96;83.47
26443;BME280;5563;52.296;6.806;2023-02-12T00:52:28;103696.09;;;6.96;83.64
26443;BME280;5563;52.296;6.806;2023-02-12T00:54:55;103694.34;;;6.95;83.71
26443;BME280;5563;52.296;6.806;2023-02-12T00:57:28;103693.53;;;6.92;83.58
26443;BME280;5563;52.296;6.806;2023-02-12T00:59:55;103689.13;;;6.91;83.63
26443;BME280;5563;52.296;6.806;2023-02-12T01:02:28;103696.22;;;6.89;83.44
26443;BME280;5563;52.296;6.806;2023-02-12T01:05:04;103695.38;;;6.87;83.68
26443;BME280;5563;52.296;6.806;2023-02-12T01:07:38;103694.47;;;6.89;83.44
26443;BME280;5563;52.296;6.806;2023-02-12T01:10:06;103691.88;;;6.85;83.64
26443;BME280;5563;52.296;6.806;2023-02-12T01:12:33;103691.94;;;6.83;83.64
26443;BME280;5563;52.296;6.806;2023-02-12T01:15:07;103699.00;;;6.84;83.70
26443;BME280;5563;52.296;6.806;2023-02-12T01:17:35;103699.88;;;6.83;83.54
26443;BME280;5563;52.296;6.806;2023-02-12T01:20:12;103710.47;;;6.83;83.48
26443;BME280;5563;52.296;6.806;2023-02-12T01:22:39;103701.69;;;6.81;83.40
26443;BME280;5563;52.296;6.806;2023-02-12T01:25:13;103710.53;;;6.82;83.96
26443;BME280;5563;52.296;6.806;2023-02-12T01:27:57;103714.94;;;6.83;83.34
26443;BME280;5563;52.296;6.806;2023-02-12T01:30:32;103691.28;;;6.72;83.74
26443;BME280;5563;52.296;6.806;2023-02-12T01:32:59;103695.72;;;6.72;83.86
26443;BME280;5563;52.296;6.806;2023-02-12T01:35:32;103689.53;;;6.71;84.24
26443;BME280;5563;52.296;6.806;2023-02-12T01:37:59;103707.94;;;6.79;84.28
26443;BME280;5563;52.296;6.806;2023-02-12T01:40:32;103704.44;;;6.77;83.94
26443;BME280;5563;52.296;6.806;2023-02-12T01:43:10;103686.19;;;6.60;84.09
26443;BME280;5563;52.296;6.806;2023-02-12T01:45:47;103698.44;;;6.67;83.94
26443;BME280;5563;52.296;6.806;2023-02-12T01:48:42;103698.50;;;6.64;83.85
26443;BME280;5563;52.296;6.806;2023-02-12T01:51:22;103702.84;;;6.68;83.99
26443;BME280;5563;52.296;6.806;2023-02-12T01:53:55;103695.91;;;6.61;83.98
26443;BME280;5563;52.296;6.806;2023-02-12T01:56:37;103677.50;;;6.53;84.23
26443;BME280;5563;52.296;6.806;2023-02-12T01:59:05;103711.66;;;6.70;84.05
26443;BME280;5563;52.296;6.806;2023-02-12T02:01:38;103706.41;;;6.66;83.94
26443;BME280;5563;52.296;6.806;2023-02-12T02:04:18;103695.03;;;6.61;84.01
26443;BME280;5563;52.296;6.806;2023-02-12T02:07:01;103695.97;;;6.58;84.07
26443;BME280;5563;52.296;6.806;2023-02-12T02:09:36;103699.44;;;6.62;83.98
26443;BME280;5563;52.296;6.806;2023-02-12T02:12:04;103696.81;;;6.60;84.16
26443;BME280;5563;52.296;6.806;2023-02-12T02:15:00;103701.19;;;6.63;84.32
26443;BME280;5563;52.296;6.806;2023-02-12T02:17:57;103686.22;;;6.58;84.26
26443;BME280;5563;52.296;6.806;2023-02-12T02:21:04;103694.16;;;6.62;84.08
26443;BME280;5563;52.296;6.806;2023-02-12T02:29:45;103688.84;;;6.60;84.36
26443;BME280;5563;52.296;6.806;2023-02-12T02:32:54;103695.03;;;6.61;84.01
26443;BME280;5563;52.296;6.806;2023-02-12T02:36:28;103685.38;;;6.56;83.81
26443;BME280;5563;52.296;6.806;2023-02-12T02:38:39;103668.78;;;6.48;84.11
26443;BME280;5563;52.296;6.806;2023-02-12T02:41:33;103678.34;;;6.55;84.38
26443;BME280;5563;52.296;6.806;2023-02-12T02:44:23;103671.28;;;6.56;84.29
26443;BME280;5563;52.296;6.806;2023-02-12T02:47:10;103685.38;;;6.56;84.17
26443;BME280;5563;52.296;6.806;2023-02-12T02:50:19;103672.22;;;6.52;84.29
26443;BME280;5563;52.296;6.806;2023-02-12T02:53:07;103675.75;;;6.52;84.25
26443;BME280;5563;52.296;6.806;2023-02-12T02:55:55;103678.41;;;6.52;84.22
26443;BME280;5563;52.296;6.806;2023-02-12T02:58:37;103657.31;;;6.46;84.38
26443;BME280;5563;52.296;6.806;2023-02-12T03:01:16;103663.53;;;6.44;84.47
26443;BME280;5563;52.296;6.806;2023-02-12T03:04:09;103673.13;;;6.52;84.96
26443;BME280;5563;52.296;6.806;2023-02-12T03:06:49;103667.00;;;6.47;84.85
26443;BME280;5563;52.296;6.806;2023-02-12T03:09:37;103670.47;;;6.51;85.04
26443;BME280;5563;52.296;6.806;2023-02-12T03:12:21;103664.31;;;6.50;84.73
26443;BME280;5563;52.296;6.806;2023-02-12T03:15:13;103674.00;;;6.51;85.08
26443;BME280;5563;52.296;6.806;2023-02-12T03:17:53;103675.81;;;6.49;85.14
26443;BME280;5563;52.296;6.806;2023-02-12T03:20:35;103681.09;;;6.49;84.82
26443;BME280;5563;52.296;6.806;2023-02-12T03:23:10;103677.59;;;6.47;84.89
26443;BME280;5563;52.296;6.806;2023-02-12T03:26:00;103666.25;;;6.41;84.93
26443;BME280;5563;52.296;6.806;2023-02-12T03:28:34;103669.75;;;6.43;85.06
26443;BME280;5563;52.296;6.806;2023-02-12T03:34:33;103666.19;;;6.44;85.09
26443;BME280;5563;52.296;6.806;2023-02-12T03:37:30;103667.13;;;6.41;85.20
26443;BME280;5563;52.296;6.806;2023-02-12T03:40:37;103670.66;;;6.42;85.01
26443;BME280;5563;52.296;6.806;2023-02-12T03:43:22;103660.09;;;6.39;85.20
26443;BME280;5563;52.296;6.806;2023-02-12T03:48:40;103669.03;;;6.35;85.03
26443;BME280;5563;52.296;6.806;2023-02-12T03:51:37;103659.47;;;6.26;84.78
26443;BME280;5563;52.296;6.806;2023-02-12T03:54:07;103668.22;;;6.31;84.68
26443;BME280;5563;52.296;6.806;2023-02-12T03:56:52;103672.63;;;6.31;84.73
26443;BME280;5563;52.296;6.806;2023-02-12T03:59:27;103664.75;;;6.26;85.16
26443;BME280;5563;52.296;6.806;2023-02-12T04:02:01;103668.28;;;6.27;85.02
26443;BME280;5563;52.296;6.806;2023-02-12T04:04:50;103677.13;;;6.27;85.03
26443;BME280;5563;52.296;6.806;2023-02-12T04:07:26;103658.88;;;6.11;84.85
26443;BME280;5563;52.296;6.806;2023-02-12T04:09:53;103690.41;;;6.24;85.05
26443;BME280;5563;52.296;6.806;2023-02-12T04:15:37;103691.34;;;6.22;85.10
26443;BME280;5563;52.296;6.806;2023-02-12T04:18:18;103697.53;;;6.21;85.27
26443;BME280;5563;52.296;6.806;2023-02-12T04:21:00;103701.16;;;6.17;85.22
26443;BME280;5563;52.296;6.806;2023-02-12T04:26:41;103703.00;;;6.12;85.15
26443;BME280;5563;52.296;6.806;2023-02-12T04:35:13;103711.00;;;6.07;85.56
26443;BME280;5563;52.296;6.806;2023-02-12T04:37:48;103712.84;;;6.04;85.64
26443;BME280;5563;52.296;6.806;2023-02-12T04:40:23;103717.25;;;6.05;85.65
26443;BME280;5563;52.296;6.806;2023-02-12T04:42:51;103724.28;;;6.06;85.58
26443;BME280;5563;52.296;6.806;2023-02-12T04:45:29;103717.25;;;6.05;85.62
26443;BME280;5563;52.296;6.806;2023-02-12T04:48:03;103719.13;;;5.97;85.50
26443;BME280;5563;52.296;6.806;2023-02-12T04:50:47;103726.16;;;5.99;85.60
26443;BME280;5563;52.296;6.806;2023-02-12T04:53:17;103720.03;;;5.97;85.95
26443;BME280;5563;52.296;6.806;2023-02-12T04:55:52;103725.34;;;5.96;85.88
26443;BME280;5563;52.296;6.806;2023-02-12T04:58:21;103721.84;;;5.94;85.96
26443;BME280;5563;52.296;6.806;2023-02-12T05:00:58;103736.75;;;5.98;85.66
26443;BME280;5563;52.296;6.806;2023-02-12T05:03:24;103714.84;;;5.90;85.58
26443;BME280;5563;52.296;6.806;2023-02-12T05:06:04;103714.88;;;5.88;85.86
26443;BME280;5563;52.296;6.806;2023-02-12T05:08:37;103717.47;;;5.90;86.03
26443;BME280;5563;52.296;6.806;2023-02-12T05:11:11;103726.25;;;5.93;85.67
26443;BME280;5563;52.296;6.806;2023-02-12T05:13:55;103714.91;;;5.84;85.67
26443;BME280;5563;52.296;6.806;2023-02-12T05:16:31;103720.22;;;5.85;85.50
26443;BME280;5563;52.296;6.806;2023-02-12T05:19:04;103725.50;;;5.87;85.77
26443;BME280;5563;52.296;6.806;2023-02-12T05:21:41;103729.00;;;5.86;85.86
26443;BME280;5563;52.296;6.806;2023-02-12T05:24:20;103729.94;;;5.85;85.58
26443;BME280;5563;52.296;6.806;2023-02-12T05:26:51;103706.22;;;5.74;85.73
26443;BME280;5563;52.296;6.806;2023-02-12T05:29:24;103729.03;;;5.84;86.00
26443;BME280;5563;52.296;6.806;2023-02-12T05:31:51;103703.59;;;5.71;86.05
26443;BME280;5563;52.296;6.806;2023-02-12T05:34:24;103731.72;;;5.81;86.11
26443;BME280;5563;52.296;6.806;2023-02-12T05:36:51;103730.81;;;5.81;85.94
26443;BME280;5563;52.296;6.806;2023-02-12T05:39:25;103723.00;;;5.75;85.96
26443;BME280;5563;52.296;6.806;2023-02-12T05:41:52;103735.25;;;5.82;86.06
26443;BME280;5563;52.296;6.806;2023-02-12T05:44:19;103727.38;;;5.76;86.32
26443;BME280;5563;52.296;6.806;2023-02-12T05:46:52;103744.09;;;5.79;86.18
26443;BME280;5563;52.296;6.806;2023-02-12T05:49:33;103727.44;;;5.71;86.54
26443;BME280;5563;52.296;6.806;2023-02-12T05:52:20;103733.59;;;5.75;86.37
26443;BME280;5563;52.296;6.806;2023-02-12T05:54:54;103723.97;;;5.69;86.52
26443;BME280;5563;52.296;6.806;2023-02-12T05:57:28;103716.00;;;5.68;86.57
26443;BME280;5563;52.296;6.806;2023-02-12T06:00:10;103733.59;;;5.75;86.47
26443;BME280;5563;52.296;6.806;2023-02-12T06:02:43;103737.97;;;5.76;86.39
26443;BME280;5563;52.296;6.806;2023-02-12T06:05:10;103724.88;;;5.67;86.48
26443;BME280;5563;52.296;6.806;2023-02-12T06:07:43;103740.66;;;5.74;86.71
26443;BME280;5563;52.296;6.806;2023-02-12T06:10:10;103739.84;;;5.68;86.92
26443;BME280;5563;52.296;6.806;2023-02-12T06:12:46;103747.72;;;5.72;86.78
26443;BME280;5563;52.296;6.806;2023-02-12T06:15:15;103749.53;;;5.70;86.77
26443;BME280;5563;52.296;6.806;2023-02-12T06:17:48;103739.84;;;5.68;86.82
26443;BME280;5563;52.296;6.806;2023-02-12T06:20:15;103737.19;;;5.68;86.88
26443;BME280;5563;52.296;6.806;2023-02-12T06:22:45;103740.78;;;5.65;86.93
26443;BME280;5563;52.296;6.806;2023-02-12T06:25:24;103744.25;;;5.69;86.98
26443;BME280;5563;52.296;6.806;2023-02-12T06:28:21;103743.38;;;5.68;86.91
26443;BME280;5563;52.296;6.806;2023-02-12T06:30:51;103740.81;;;5.64;86.92
26443;BME280;5563;52.296;6.806;2023-02-12T06:33:24;103733.75;;;5.61;86.94
26443;BME280;5563;52.296;6.806;2023-02-12T06:35:51;103744.31;;;5.63;86.63
26443;BME280;5563;52.296;6.806;2023-02-12T06:38:18;103732.09;;;5.56;86.67
26443;BME280;5563;52.296;6.806;2023-02-12T06:40:51;103740.00;;;5.59;86.91
26443;BME280;5563;52.296;6.806;2023-02-12T06:43:18;103734.75;;;5.54;87.10
26443;BME280;5563;52.296;6.806;2023-02-12T06:45:51;103750.53;;;5.62;86.83
26443;BME280;5563;52.296;6.806;2023-02-12T06:48:18;103749.69;;;5.60;86.63
26443;BME280;5563;52.296;6.806;2023-02-12T06:50:51;103743.56;;;5.56;86.57
26443;BME280;5563;52.296;6.806;2023-02-12T06:53:18;103754.06;;;5.61;86.76
26443;BME280;5563;52.296;6.806;2023-02-12T06:55:59;103759.38;;;5.59;87.14
26443;BME280;5563;52.296;6.806;2023-02-12T06:58:26;103752.41;;;5.55;87.10
26443;BME280;5563;52.296;6.806;2023-02-12T07:01:11;103764.66;;;5.59;87.38
26443;BME280;5563;52.296;6.806;2023-02-12T07:03:50;103774.31;;;5.63;86.93
26443;BME280;5563;52.296;6.806;2023-02-12T07:06:25;103777.84;;;5.64;87.01
26443;BME280;5563;52.296;6.806;2023-02-12T07:08:57;103749.78;;;5.52;87.00
26443;BME280;5563;52.296;6.806;2023-02-12T07:11:32;103771.69;;;5.63;86.98
26443;BME280;5563;52.296;6.806;2023-02-12T07:14:14;103771.69;;;5.63;86.95
26443;BME280;5563;52.296;6.806;2023-02-12T07:16:48;103772.56;;;5.64;87.16
26443;BME280;5563;52.296;6.806;2023-02-12T07:19:22;103785.75;;;5.67;86.95
26443;BME280;5563;52.296;6.806;2023-02-12T07:21:55;103782.19;;;5.69;87.26
26443;BME280;5563;52.296;6.806;2023-02-12T07:24:28;103780.44;;;5.68;87.34
26443;BME280;5563;52.296;6.806;2023-02-12T07:26:57;103770.78;;;5.64;87.07
26443;BME280;5563;52.296;6.806;2023-02-12T07:29:30;103795.34;;;5.74;87.29
26443;BME280;5563;52.296;6.806;2023-02-12T07:31:57;103790.09;;;5.72;87.38
26443;BME280;5563;52.296;6.806;2023-02-12T07:34:33;103772.59;;;5.62;87.03
26443;BME280;5563;52.296;6.806;2023-02-12T07:37:00;103798.84;;;5.76;87.08
26443;BME280;5563;52.296;6.806;2023-02-12T07:39:33;103808.53;;;5.78;86.96
26443;BME280;5563;52.296;6.806;2023-02-12T07:42:00;103802.38;;;5.76;87.11
26443;BME280;5563;52.296;6.806;2023-02-12T07:44:33;103810.28;;;5.79;86.85
26443;BME280;5563;52.296;6.806;2023-02-12T07:47:00;103815.53;;;5.82;86.94
26443;BME280;5563;52.296;6.806;2023-02-12T07:49:35;103815.53;;;5.85;87.20
26443;BME280;5563;52.296;6.806;2023-02-12T07:52:15;103820.78;;;5.88;86.92
26443;BME280;5563;52.296;6.806;2023-02-12T07:54:46;103807.56;;;5.82;87.08
26443;BME280;5563;52.296;6.806;2023-02-12T07:57:25;103822.50;;;5.91;87.05
26443;BME280;5563;52.296;6.806;2023-02-12T08:00:00;103825.16;;;5.92;86.73
26443;BME280;5563;52.296;6.806;2023-02-12T08:02:38;103815.50;;;5.87;86.75
26443;BME280;5563;52.296;6.806;2023-02-12T08:05:12;103833.88;;;5.97;86.87
26443;BME280;5563;52.296;6.806;2023-02-12T08:07:44;103803.16;;;5.86;86.69
26443;BME280;5563;52.296;6.806;2023-02-12T08:10:17;103811.94;;;5.89;86.67
26443;BME280;5563;52.296;6.806;2023-02-12T08:12:57;103823.28;;;5.99;86.43
26443;BME280;5563;52.296;6.806;2023-02-12T08:15:24;103814.50;;;5.95;86.84
26443;BME280;5563;52.296;6.806;2023-02-12T08:17:58;103824.16;;;5.99;86.82
26443;BME280;5563;52.296;6.806;2023-02-12T08:20:28;103823.28;;;5.99;86.95
26443;BME280;5563;52.296;6.806;2023-02-12T08:23:01;103838.03;;;6.15;86.62
26443;BME280;5563;52.296;6.806;2023-02-12T08:25:40;103850.34;;;6.19;86.51
26443;BME280;5563;52.296;6.806;2023-02-12T08:28:43;103849.41;;;6.21;86.51
26443;BME280;5563;52.296;6.806;2023-02-12T08:31:20;103837.19;;;6.13;86.48
26443;BME280;5563;52.296;6.806;2023-02-12T08:33:57;103840.66;;;6.16;86.71
26443;BME280;5563;52.296;6.806;2023-02-12T08:36:26;103859.00;;;6.31;86.62
26443;BME280;5563;52.296;6.806;2023-02-12T08:39:02;103868.69;;;6.32;86.23
26443;BME280;5563;52.296;6.806;2023-02-12T08:41:30;103863.31;;;6.35;86.59
26443;BME280;5563;52.296;6.806;2023-02-12T08:44:08;103864.19;;;6.37;86.24
26443;BME280;5563;52.296;6.806;2023-02-12T08:46:49;103876.41;;;6.46;86.29
26443;BME280;5563;52.296;6.806;2023-02-12T08:49:35;103869.34;;;6.46;86.38
26443;BME280;5563;52.296;6.806;2023-02-12T08:52:07;103878.09;;;6.51;86.10
26443;BME280;5563;52.296;6.806;2023-02-12T08:54:41;103868.34;;;6.53;86.36
26443;BME280;5563;52.296;6.806;2023-02-12T08:57:17;103877.09;;;6.58;86.24
26443;BME280;5563;52.296;6.806;2023-02-12T08:59:57;103871.78;;;6.58;85.91
26443;BME280;5563;52.296;6.806;2023-02-12T09:02:24;103873.50;;;6.63;85.90
26443;BME280;5563;52.296;6.806;2023-02-12T09:05:06;103885.72;;;6.71;85.98
26443;BME280;5563;52.296;6.806;2023-02-12T09:07:32;103866.47;;;6.62;85.89
26443;BME280;5563;52.296;6.806;2023-02-12T09:10:08;103868.00;;;6.73;85.68
26443;BME280;5563;52.296;6.806;2023-02-12T09:12:35;103843.44;;;6.62;85.67
26443;BME280;5563;52.296;6.806;2023-02-12T09:15:01;103875.78;;;6.84;85.66
26443;BME280;5563;52.296;6.806;2023-02-12T09:17:36;103880.09;;;6.91;85.68
26443;BME280;5563;52.296;6.806;2023-02-12T09:20:05;103885.31;;;6.95;85.53
26443;BME280;5563;52.296;6.806;2023-02-12T09:22:40;103891.44;;;6.99;85.42
26443;BME280;5563;52.296;6.806;2023-02-12T09:25:07;103891.34;;;7.03;85.35
26443;BME280;5563;52.296;6.806;2023-02-12T09:27:47;103886.94;;;7.04;85.41
26443;BME280;5563;52.296;6.806;2023-02-12T09:30:17;103882.47;;;7.06;85.29
26443;BME280;5563;52.296;6.806;2023-02-12T09:33:00;103900.03;;;7.13;85.10
26443;BME280;5563;52.296;6.806;2023-02-12T09:35:40;103886.75;;;7.14;85.24
26443;BME280;5563;52.296;6.806;2023-02-12T09:38:34;103889.31;;;7.17;85.19
26443;BME280;5563;52.296;6.806;2023-02-12T09:45:21;103881.31;;;7.20;85.00
26443;BME280;5563;52.296;6.806;2023-02-12T09:47:53;103877.69;;;7.24;84.88
26443;BME280;5563;52.296;6.806;2023-02-12T09:51:13;103898.69;;;7.36;84.41
26443;BME280;5563;52.296;6.806;2023-02-12T09:53:45;103879.38;;;7.30;84.58
26443;BME280;5563;52.296;6.806;2023-02-12T09:56:21;103901.25;;;7.42;84.60
26443;BME280;5563;52.296;6.806;2023-02-12T10:01:22;103904.63;;;7.49;84.38
26443;BME280;5563;52.296;6.806;2023-02-12T10:03:55;103875.69;;;7.37;84.21
26443;BME280;5563;52.296;6.806;2023-02-12T10:06:28;103896.75;;;7.46;84.36
26443;BME280;5563;52.296;6.806;2023-02-12T10:09:21;103902.72;;;7.57;84.03
26443;BME280;5563;52.296;6.806;2023-02-12T10:11:52;103900.03;;;7.58;83.99
26443;BME280;5563;52.296;6.806;2023-02-12T10:14:51;103902.59;;;7.63;84.09
26443;BME280;5563;52.296;6.806;2023-02-12T10:20:35;103905.97;;;7.71;83.72
26443;BME280;5563;52.296;6.806;2023-02-12T10:29:36;103896.78;;;7.87;83.50
26443;BME280;5563;52.296;6.806;2023-02-12T10:32:30;103901.94;;;7.93;83.45
26443;BME280;5563;52.296;6.806;2023-02-12T10:35:15;103900.94;;;7.99;83.31
26443;BME280;5563;52.296;6.806;2023-02-12T10:41:14;103901.72;;;8.05;83.13
26443;BME280;5563;52.296;6.806;2023-02-12T10:43:42;103884.06;;;8.01;82.93
26443;BME280;5563;52.296;6.806;2023-02-12T10:46:16;103892.69;;;8.12;83.09
26443;BME280;5563;52.296;6.806;2023-02-12T10:49:04;103899.63;;;8.19;82.70
26443;BME280;5563;52.296;6.806;2023-02-12T10:52:16;103895.94;;;8.26;82.72
26443;BME280;5563;52.296;6.806;2023-02-12T10:54:53;103886.13;;;8.28;81.98
26443;BME280;5563;52.296;6.806;2023-02-12T10:57:30;103897.56;;;8.33;81.88
26443;BME280;5563;52.296;6.806;2023-02-12T11:00:35;103901.94;;;8.34;81.75
26443;BME280;5563;52.296;6.806;2023-02-12T11:05:43;103900.94;;;8.40;81.57
26443;BME280;5563;52.296;6.806;2023-02-12T11:08:32;103896.47;;;8.42;81.71
26443;BME280;5563;52.296;6.806;2023-02-12T11:11:07;103902.59;;;8.45;81.27
26443;BME280;5563;52.296;6.806;2023-02-12T11:13:52;103905.16;;;8.48;81.25
26443;BME280;5563;52.296;6.806;2023-02-12T11:19:09;103897.09;;;8.53;80.99
26443;BME280;5563;52.296;6.806;2023-02-12T11:22:11;103896.09;;;8.57;81.04
26443;BME280;5563;52.296;6.806;2023-02-12T11:25:13;103892.56;;;8.56;80.55
26443;BME280;5563;52.296;6.806;2023-02-12T11:27:41;103884.59;;;8.56;80.41
26443;BME280;5563;52.296;6.806;2023-02-12T11:32:48;103874.66;;;8.63;80.29
26443;BME280;5563;52.296;6.806;2023-02-12T11:35:26;103863.16;;;8.62;80.29
26443;BME280;5563;52.296;6.806;2023-02-12T11:38:02;103870.94;;;8.70;79.55
26443;BME280;5563;52.296;6.806;2023-02-12T11:40:45;103872.50;;;8.79;79.82
26443;BME280;5563;52.296;6.806;2023-02-12T11:43:19;103868.94;;;8.80;79.53
26443;BME280;5563;52.296;6.806;2023-02-12T11:45:58;103868.94;;;8.78;79.03
26443;BME280;5563;52.296;6.806;2023-02-12T11:48:39;103870.63;;;8.82;78.81
26443;BME280;5563;52.296;6.806;2023-02-12T11:51:25;103867.03;;;8.85;78.84
26443;BME280;5563;52.296;6.806;2023-02-12T11:54:02;103862.56;;;8.85;78.81
26443;BME280;5563;52.296;6.806;2023-02-12T11:56:50;103866.94;;;8.88;79.21
26443;BME280;5563;52.296;6.806;2023-02-12T11:59:37;103860.75;;;8.87;79.07
26443;BME280;5563;52.296;6.806;2023-02-12T12:02:29;103862.31;;;8.96;79.00
26443;BME280;5563;52.296;6.806;2023-02-12T12:05:30;103824.63;;;8.79;78.90
26443;BME280;5563;52.296;6.806;2023-02-12T12:08:06;103857.88;;;8.95;78.32
26443;BME280;5563;52.296;6.806;2023-02-12T12:11:10;103858.69;;;8.98;78.98
26443;BME280;5563;52.296;6.806;2023-02-12T12:13:46;103857.75;;;9.01;78.79
26443;BME280;5563;52.296;6.806;2023-02-12T12:16:35;103855.00;;;9.04;78.50
26443;BME280;5563;52.296;6.806;2023-02-12T12:19:49;103850.66;;;9.00;78.40
26443;BME280;5563;52.296;6.806;2023-02-12T12:22:43;103850.41;;;9.09;78.49
26443;BME280;5563;52.296;6.806;2023-02-12T12:25:35;103845.78;;;9.17;78.54
26443;BME280;5563;52.296;6.806;2023-02-12T12:28:57;103846.41;;;9.25;77.94
26443;BME280;5563;52.296;6.806;2023-02-12T12:31:44;103814.69;;;9.17;77.62
26443;BME280;5563;52.296;6.806;2023-02-12T12:34:28;103833.72;;;9.34;77.45
26443;BME280;5563;52.296;6.806;2023-02-12T12:40:20;103827.13;;;9.47;76.60
26443;BME280;5563;52.296;6.806;2023-02-12T12:54:28;103801.94;;;9.59;76.58
26443;BME280;5563;52.296;6.806;2023-02-12T13:14:41;103792.50;;;9.47;76.73
26443;BME280;5563;52.296;6.806;2023-02-12T13:17:22;103793.38;;;9.48;76.59
26443;BME280;5563;52.296;6.806;2023-02-12T13:20:35;103792.53;;;9.46;76.41
26443;BME280;5563;52.296;6.806;2023-02-12T13:26:36;103785.53;;;9.43;76.58
26443;BME280;5563;52.296;6.806;2023-02-12T13:34:38;103761.38;;;9.20;76.42
26443;BME280;5563;52.296;6.806;2023-02-12T13:39:59;103777.09;;;9.28;76.61
26443;BME280;5563;52.296;6.806;2023-02-12T13:43:02;103786.84;;;9.29;76.75
26443;BME280;5563;52.296;6.806;2023-02-12T13:45:47;103788.63;;;9.28;76.88
26443;BME280;5563;52.296;6.806;2023-02-12T13:48:58;103786.94;;;9.26;76.99
26443;BME280;5563;52.296;6.806;2023-02-12T13:57:17;103785.44;;;9.16;77.01
26443;BME280;5563;52.296;6.806;2023-02-12T14:00:01;103792.59;;;9.14;76.96
26443;BME280;5563;52.296;6.806;2023-02-12T14:02:59;103775.06;;;9.07;76.86
26443;BME280;5563;52.296;6.806;2023-02-12T14:06:17;103774.22;;;9.05;77.09
26443;BME280;5563;52.296;6.806;2023-02-12T14:09:08;103775.00;;;9.10;76.88
26443;BME280;5563;52.296;6.806;2023-02-12T14:11:50;103785.69;;;9.07;76.64
26443;BME280;5563;52.296;6.806;2023-02-12T14:14:37;103750.03;;;8.83;76.89
26443;BME280;5563;52.296;6.806;2023-02-12T14:27:51;103784.25;;;8.95;77.49
26443;BME280;5563;52.296;6.806;2023-02-12T14:30:27;103776.31;;;8.94;77.45
26443;BME280;5563;52.296;6.806;2023-02-12T14:33:24;103766.63;;;8.91;77.35
26443;BME280;5563;52.296;6.806;2023-02-12T14:41:55;103768.53;;;8.86;76.57
26443;BME280;5563;52.296;6.806;2023-02-12T14:50:17;103760.66;;;8.83;77.07
26443;BME280;5563;52.296;6.806;2023-02-12T14:52:58;103739.78;;;8.68;76.91
26443;BME280;5563;52.296;6.806;2023-02-12T14:55:33;103767.72;;;8.84;77.20
26443;BME280;5563;52.296;6.806;2023-02-12T14:58:04;103749.56;;;8.66;77.21
26443;BME280;5563;52.296;6.806;2023-02-12T15:00:45;103766.88;;;8.82;76.95
26443;BME280;5563;52.296;6.806;2023-02-12T15:03:15;103772.25;;;8.81;76.91
26443;BME280;5563;52.296;6.806;2023-02-12T15:06:18;103766.13;;;8.77;77.24
26443;BME280;5563;52.296;6.806;2023-02-12T15:09:00;103761.78;;;8.73;77.05
26443;BME280;5563;52.296;6.806;2023-02-12T15:11:58;103772.38;;;8.76;77.21
26443;BME280;5563;52.296;6.806;2023-02-12T15:14:35;103730.41;;;8.53;77.25
26443;BME280;5563;52.296;6.806;2023-02-12T15:17:19;103739.97;;;8.62;77.22
26443;BME280;5563;52.296;6.806;2023-02-12T15:20:00;103739.16;;;8.58;76.69
26443;BME280;5563;52.296;6.806;2023-02-12T15:22:34;103759.22;;;8.70;76.53
26443;BME280;5563;52.296;6.806;2023-02-12T15:25:22;103756.56;;;8.70;76.59
26443;BME280;5563;52.296;6.806;2023-02-12T15:30:44;103724.31;;;8.50;76.29
26443;BME280;5563;52.296;6.806;2023-02-12T15:33:25;103753.28;;;8.60;76.37
26443;BME280;5563;52.296;6.806;2023-02-12T15:35:57;103760.31;;;8.63;76.44
26443;BME280;5563;52.296;6.806;2023-02-12T15:38:37;103757.69;;;8.61;76.33
26443;BME280;5563;52.296;6.806;2023-02-12T15:41:06;103756.81;;;8.61;76.86
26443;BME280;5563;52.296;6.806;2023-02-12T15:43:50;103751.53;;;8.59;76.35
26443;BME280;5563;52.296;6.806;2023-02-12T15:46:17;103746.25;;;8.58;76.18
26443;BME280;5563;52.296;6.806;2023-02-12T15:48:57;103745.44;;;8.56;76.07
26443;BME280;5563;52.296;6.806;2023-02-12T15:51:39;103748.97;;;8.55;75.92
26443;BME280;5563;52.296;6.806;2023-02-12T15:54:17;103744.63;;;8.52;75.05
26443;BME280;5563;52.296;6.806;2023-02-12T15:56:52;103744.78;;;8.46;75.06
26443;BME280;5563;52.296;6.806;2023-02-12T15:59:24;103752.72;;;8.48;75.17
26443;BME280;5563;52.296;6.806;2023-02-12T16:01:59;103733.59;;;8.34;75.15
26443;BME280;5563;52.296;6.806;2023-02-12T16:04:52;103721.38;;;8.27;75.92
26443;BME280;5563;52.296;6.806;2023-02-12T16:07:36;103756.44;;;8.42;75.36
26443;BME280;5563;52.296;6.806;2023-02-12T16:10:13;103737.97;;;8.36;74.91
26443;BME280;5563;52.296;6.806;2023-02-12T16:12:57;103758.31;;;8.37;75.21
26443;BME280;5563;52.296;6.806;2023-02-12T16:15:31;103745.19;;;8.31;75.21
26443;BME280;5563;52.296;6.806;2023-02-12T16:18:21;103741.59;;;8.32;75.56